Time;durP1;ratioP1;P1;durP2;ratioP2;P2;SDS_P1;SDS_P2;PMS_P1;PMS_P2;Temp;Humidity;BMP_temperature;BMP_pressure;BME280_temperature;BME280_humidity;BME280_pressure;Samples;Min_cycle;Max_cycle;Signal;HPM_P1;HPM_P2
2022/11/01 00:00:18;;;;;;;37.67;31.03;;;14.10;99.90;;;;;;4928348;29;20662;-67
2022/11/01 00:02:43;;;;;;;40.87;33.20;;;14.10;99.90;;;;;;4926536;29;20234;-68
2022/11/01 00:05:09;;;;;;;42.67;30.33;;;14.10;99.90;;;;;;4929403;29;20195;-67
2022/11/01 00:07:35;;;;;;;34.17;29.67;;;14.10;99.90;;;;;;4929385;29;20225;-67
2022/11/01 00:10:00;;;;;;;45.20;31.27;;;14.10;99.90;;;;;;4928896;29;20693;-68
2022/11/01 00:12:26;;;;;;;40.93;31.70;;;14.00;99.90;;;;;;4929400;29;20287;-68
2022/11/01 00:14:51;;;;;;;41.93;30.60;;;14.00;99.90;;;;;;4928955;29;20688;-67
2022/11/01 00:17:17;;;;;;;38.63;30.80;;;14.10;99.90;;;;;;4926642;29;20304;-67
2022/11/01 00:19:42;;;;;;;41.50;31.00;;;14.10;99.90;;;;;;4928617;29;20193;-67
2022/11/01 00:22:08;;;;;;;42.27;30.67;;;14.10;99.90;;;;;;4930391;29;20205;-67
2022/11/01 00:24:33;;;;;;;39.93;30.37;;;14.10;99.90;;;;;;4928639;29;20213;-68
2022/11/01 00:26:59;;;;;;;40.07;30.30;;;14.10;99.90;;;;;;4925699;29;20233;-67
2022/11/01 00:29:25;;;;;;;43.03;30.40;;;14.20;99.90;;;;;;4928508;29;20210;-67
2022/11/01 00:31:50;;;;;;;36.63;29.23;;;14.20;99.90;;;;;;4927191;29;20214;-66
2022/11/01 00:34:16;;;;;;;38.57;30.50;;;14.20;99.90;;;;;;4928736;29;20673;-67
2022/11/01 00:36:42;;;;;;;39.73;30.40;;;14.20;99.90;;;;;;4928895;29;20675;-67
2022/11/01 00:39:12;;;;;;;35.33;31.57;;;14.20;99.90;;;;;;4929078;29;20217;-69
2022/11/01 00:41:38;;;;;;;34.57;28.60;;;14.20;99.90;;;;;;4927876;29;20281;-69
2022/11/01 00:44:03;;;;;;;38.67;30.90;;;14.10;99.90;;;;;;4933096;29;20292;-67
2022/11/01 00:46:29;;;;;;;35.87;28.23;;;14.10;99.90;;;;;;4930907;29;20217;-67
2022/11/01 00:48:55;;;;;;;39.73;28.77;;;14.00;99.90;;;;;;4931803;29;20280;-68
2022/11/01 00:51:20;;;;;;;35.30;27.27;;;13.90;99.90;;;;;;4931719;29;20206;-67
2022/11/01 00:53:46;;;;;;;39.20;29.57;;;13.80;99.90;;;;;;4935455;28;20244;-67
2022/11/01 00:56:11;;;;;;;31.70;27.77;;;13.80;99.90;;;;;;4931865;29;20358;-68
2022/11/01 00:58:37;;;;;;;39.60;28.73;;;13.90;99.90;;;;;;4926068;28;20722;-69
2022/11/01 01:01:02;;;;;;;41.13;29.40;;;13.80;99.90;;;;;;4932766;29;20689;-69
2022/11/01 01:03:28;;;;;;;33.57;27.83;;;13.70;99.90;;;;;;4932455;29;20244;-68
2022/11/01 01:05:54;;;;;;;39.40;29.73;;;13.80;99.90;;;;;;4932081;29;20574;-69
2022/11/01 01:08:20;;;;;;;37.30;31.03;;;13.80;99.90;;;;;;4931775;29;20230;-68
2022/11/01 01:10:45;;;;;;;36.53;29.90;;;13.80;99.90;;;;;;4929802;29;20312;-68
2022/11/01 01:13:11;;;;;;;36.87;29.80;;;13.80;99.90;;;;;;4931768;29;20328;-68
2022/11/01 01:15:38;;;;;;;37.20;30.00;;;13.70;99.90;;;;;;4930891;29;20221;-68
2022/11/01 01:18:04;;;;;;;34.00;29.63;;;13.80;99.90;;;;;;4938464;29;20232;-69
2022/11/01 01:20:30;;;;;;;36.87;28.07;;;13.70;99.90;;;;;;4928131;29;20456;-68
2022/11/01 01:22:55;;;;;;;39.80;29.97;;;13.60;99.90;;;;;;4933563;29;20213;-69
2022/11/01 01:25:21;;;;;;;39.93;29.60;;;13.60;99.90;;;;;;4927810;29;20199;-69
2022/11/01 01:27:47;;;;;;;36.50;28.50;;;13.60;99.90;;;;;;4932251;29;20220;-68
2022/11/01 01:30:13;;;;;;;39.93;29.80;;;13.60;99.90;;;;;;4931781;28;20709;-68
2022/11/01 01:32:39;;;;;;;39.43;29.47;;;13.50;99.90;;;;;;4928558;29;20298;-68
2022/11/01 01:35:05;;;;;;;42.50;31.13;;;13.50;99.90;;;;;;4930897;29;20305;-69
2022/11/01 01:37:30;;;;;;;37.73;30.03;;;13.40;99.90;;;;;;4928944;29;20221;-68
2022/11/01 01:39:56;;;;;;;37.70;31.60;;;13.40;99.90;;;;;;4931317;29;20203;-68
2022/11/01 01:42:36;;;;;;;41.40;31.03;;;13.40;99.90;;;;;;4926627;29;20291;-68
2022/11/01 01:45:25;;;;;;;35.10;27.73;;;13.30;99.90;;;;;;4928445;29;20236;-68
2022/11/01 01:47:52;;;;;;;35.90;28.27;;;13.30;99.90;;;;;;4934465;29;20250;-68
2022/11/01 01:50:27;;;;;;;38.40;29.40;;;13.30;99.90;;;;;;4930997;29;20272;-68
2022/11/01 01:52:59;;;;;;;42.77;31.37;;;13.20;99.90;;;;;;4930848;28;20867;-68
2022/11/01 01:55:53;;;;;;;35.97;30.83;;;13.20;99.90;;;;;;4930979;29;20753;-68
2022/11/01 01:58:21;;;;;;;37.93;30.73;;;13.10;99.90;;;;;;4929285;29;20740;-69
2022/11/01 02:00:48;;;;;;;34.80;28.97;;;13.10;99.90;;;;;;4929076;29;20930;-70
2022/11/01 02:03:13;;;;;;;36.13;29.20;;;13.10;99.90;;;;;;4929976;29;20290;-68
2022/11/01 02:05:56;;;;;;;37.90;31.13;;;13.10;99.90;;;;;;4930563;29;20288;-67
2022/11/01 02:08:26;;;;;;;38.83;29.37;;;13.20;99.90;;;;;;4930012;29;20354;-68
2022/11/01 02:10:58;;;;;;;44.13;32.10;;;13.30;99.90;;;;;;4931346;29;20511;-68
2022/11/01 02:13:23;;;;;;;40.33;30.87;;;13.30;99.90;;;;;;4931175;29;20681;-68
2022/11/01 02:16:27;;;;;;;38.23;29.27;;;13.30;99.90;;;;;;4929097;29;20292;-68
2022/11/01 02:19:08;;;;;;;37.90;29.23;;;13.40;99.90;;;;;;4923302;29;20225;-68
2022/11/01 02:22:00;;;;;;;38.27;32.97;;;13.30;99.90;;;;;;4931040;29;20684;-68
2022/11/01 02:24:39;;;;;;;36.57;31.93;;;13.40;99.90;;;;;;4928578;29;20207;-68
2022/11/01 02:27:12;;;;;;;37.27;30.57;;;13.40;99.90;;;;;;4926032;29;20690;-69
2022/11/01 02:29:46;;;;;;;34.33;30.07;;;13.30;99.90;;;;;;4929530;29;20218;-68
2022/11/01 02:32:36;;;;;;;36.37;29.63;;;13.30;99.90;;;;;;4930123;29;20202;-68
2022/11/01 02:35:30;;;;;;;37.00;30.60;;;13.30;99.90;;;;;;4930187;29;20207;-69
2022/11/01 02:38:07;;;;;;;35.43;29.60;;;13.30;99.90;;;;;;4925700;29;20254;-69
2022/11/01 02:40:47;;;;;;;34.83;30.60;;;13.30;99.90;;;;;;4929667;29;20225;-69
2022/11/01 02:43:18;;;;;;;45.73;32.77;;;13.20;99.90;;;;;;4922652;29;20295;-68
2022/11/01 02:45:49;;;;;;;36.60;31.13;;;13.20;99.90;;;;;;4930461;29;20206;-68
2022/11/01 02:48:18;;;;;;;35.03;29.00;;;13.20;99.90;;;;;;4929934;29;20267;-68
2022/11/01 02:50:47;;;;;;;37.97;28.83;;;13.20;99.90;;;;;;4925124;29;20208;-68
2022/11/01 02:53:12;;;;;;;35.57;29.83;;;13.20;99.90;;;;;;4931244;28;20598;-69
2022/11/01 02:55:38;;;;;;;38.03;30.63;;;13.10;99.90;;;;;;4929194;29;20363;-69
2022/11/01 02:58:05;;;;;;;38.17;31.33;;;13.10;99.90;;;;;;4930930;29;20214;-69
2022/11/01 03:00:35;;;;;;;35.13;30.80;;;13.20;99.90;;;;;;4927458;29;20202;-68
2022/11/01 03:03:06;;;;;;;38.50;30.17;;;13.30;99.90;;;;;;4932669;29;20202;-69
2022/11/01 03:05:38;;;;;;;38.87;32.20;;;13.30;99.90;;;;;;4927527;29;20203;-68
2022/11/01 03:08:07;;;;;;;38.67;30.90;;;13.30;99.90;;;;;;4926622;29;20325;-69
2022/11/01 03:10:38;;;;;;;37.27;31.00;;;13.30;99.90;;;;;;4928502;29;20214;-69
2022/11/01 03:13:31;;;;;;;39.83;31.87;;;13.20;99.90;;;;;;4931741;29;20747;-69
2022/11/01 03:16:06;;;;;;;34.67;29.80;;;13.20;99.90;;;;;;4925611;29;20279;-69
2022/11/01 03:18:41;;;;;;;39.43;30.47;;;13.30;99.90;;;;;;4926983;29;20269;-67
2022/11/01 03:21:16;;;;;;;40.70;31.57;;;13.30;99.90;;;;;;4926769;29;21030;-67
2022/11/01 03:24:03;;;;;;;37.63;32.10;;;13.30;99.90;;;;;;4927517;29;20257;-67
2022/11/01 03:26:32;;;;;;;34.30;28.90;;;13.20;99.90;;;;;;4927723;29;20202;-67
2022/11/01 03:29:05;;;;;;;39.20;31.90;;;13.10;99.90;;;;;;4929300;29;20312;-68
2022/11/01 03:31:34;;;;;;;37.53;30.10;;;13.10;99.90;;;;;;4933313;29;20585;-67
2022/11/01 03:34:11;;;;;;;35.97;29.13;;;13.10;99.90;;;;;;4935013;29;20206;-69
2022/11/01 03:36:41;;;;;;;37.70;31.23;;;13.00;99.90;;;;;;4939340;29;20679;-67
2022/11/01 03:39:22;;;;;;;36.00;31.50;;;13.00;99.90;;;;;;4933472;29;20242;-67
2022/11/01 03:41:52;;;;;;;41.03;31.97;;;13.00;99.90;;;;;;4938468;29;20751;-66
2022/11/01 03:44:18;;;;;;;33.70;29.97;;;12.90;99.90;;;;;;4938607;29;20704;-67
2022/11/01 03:46:44;;;;;;;38.00;30.17;;;12.80;99.90;;;;;;4936427;29;20261;-68
2022/11/01 03:49:15;;;;;;;37.80;31.20;;;12.70;99.90;;;;;;4919343;29;20650;-68
2022/11/01 03:51:41;;;;;;;40.13;32.53;;;12.70;99.90;;;;;;4919403;29;20294;-67
2022/11/01 03:54:09;;;;;;;43.37;33.07;;;12.70;99.90;;;;;;4919272;29;20988;-69
2022/11/01 03:56:36;;;;;;;37.37;30.03;;;12.70;99.90;;;;;;4919180;29;20217;-69
2022/11/01 03:59:01;;;;;;;35.07;29.10;;;12.60;99.90;;;;;;4909588;29;20276;-68
2022/11/01 04:01:27;;;;;;;37.87;30.00;;;12.60;99.90;;;;;;4918904;29;20876;-68
2022/11/01 04:03:52;;;;;;;35.93;31.03;;;12.70;99.90;;;;;;4919423;29;20700;-69
2022/11/01 04:06:18;;;;;;;37.33;29.57;;;12.70;99.90;;;;;;4919244;29;20202;-67
2022/11/01 04:08:43;;;;;;;42.87;31.20;;;12.70;99.90;;;;;;4918564;29;20245;-68
2022/11/01 04:11:09;;;;;;;41.60;31.97;;;12.80;99.90;;;;;;4917106;29;20205;-67
2022/11/01 04:13:34;;;;;;;38.13;31.50;;;12.80;99.90;;;;;;4919165;29;20210;-67
2022/11/01 04:21:30;;;;;;;45.93;30.93;;;12.70;99.90;;;;;;4919191;29;20621;-68
2022/11/01 04:23:55;;;;;;;38.10;29.63;;;12.70;99.90;;;;;;4917155;29;20206;-68
2022/11/01 04:26:22;;;;;;;37.43;30.43;;;12.70;99.90;;;;;;4913796;29;20257;-67
2022/11/01 04:28:57;;;;;;;44.77;30.50;;;12.70;99.90;;;;;;4904865;29;20200;-69
2022/11/01 04:31:34;;;;;;;34.47;29.37;;;12.70;99.90;;;;;;4917352;29;20206;-69
2022/11/01 04:34:02;;;;;;;40.43;31.33;;;12.60;99.90;;;;;;4905845;29;20266;-68
2022/11/01 04:36:28;;;;;;;39.10;32.03;;;12.70;99.90;;;;;;4912804;29;20396;-70
2022/11/01 04:38:55;;;;;;;36.97;30.77;;;12.70;99.90;;;;;;4917798;29;20221;-71
2022/11/01 04:41:22;;;;;;;41.23;32.03;;;12.70;99.90;;;;;;4916016;29;20386;-68
2022/11/01 04:43:50;;;;;;;43.10;32.17;;;12.80;99.90;;;;;;4918940;29;20209;-68
2022/11/01 04:46:16;;;;;;;36.93;31.57;;;12.80;99.90;;;;;;4918488;29;20296;-68
2022/11/01 04:48:42;;;;;;;40.47;31.93;;;12.80;99.90;;;;;;4933593;29;20316;-68
2022/11/01 04:51:08;;;;;;;38.20;31.30;;;12.80;99.90;;;;;;4927670;29;20198;-68
2022/11/01 04:53:34;;;;;;;38.33;32.70;;;12.80;99.90;;;;;;4938149;28;20263;-69
2022/11/01 04:56:04;;;;;;;37.00;30.97;;;12.70;99.90;;;;;;4938240;29;20236;-69
2022/11/01 04:58:30;;;;;;;41.60;31.97;;;12.70;99.90;;;;;;4937632;29;20221;-68
2022/11/01 05:00:55;;;;;;;45.10;32.47;;;12.70;99.90;;;;;;4937729;29;20194;-69
2022/11/01 05:03:21;;;;;;;36.03;28.93;;;12.70;99.90;;;;;;4936308;29;20568;-70
2022/11/01 05:05:46;;;;;;;44.37;31.87;;;12.70;99.90;;;;;;4938039;29;20208;-66
2022/11/01 05:08:13;;;;;;;37.20;31.57;;;12.70;99.90;;;;;;4935253;29;20201;-70
2022/11/01 05:10:41;;;;;;;51.20;35.33;;;12.70;99.90;;;;;;4934907;29;20210;-69
2022/11/01 05:13:08;;;;;;;37.90;30.43;;;12.80;99.90;;;;;;4937883;29;20209;-69
2022/11/01 05:15:34;;;;;;;41.10;33.73;;;12.70;99.90;;;;;;4923688;29;20200;-69
2022/11/01 05:18:00;;;;;;;39.17;31.57;;;12.80;99.90;;;;;;4937691;29;20225;-70
2022/11/01 05:20:26;;;;;;;46.60;33.30;;;12.80;99.90;;;;;;4937347;29;20229;-67
2022/11/01 05:23:00;;;;;;;38.23;32.17;;;12.80;99.90;;;;;;4932772;29;20228;-68
2022/11/01 05:25:26;;;;;;;41.93;32.87;;;12.80;99.90;;;;;;4934059;29;20212;-67
2022/11/01 05:27:58;;;;;;;42.23;33.63;;;12.80;99.90;;;;;;4939804;28;20205;-68
2022/11/01 05:30:23;;;;;;;45.10;34.63;;;12.90;99.90;;;;;;4937491;29;20209;-68
2022/11/01 05:32:53;;;;;;;45.83;32.90;;;12.90;99.90;;;;;;4939821;29;20568;-68
2022/11/01 05:35:19;;;;;;;36.57;29.73;;;12.90;99.90;;;;;;4927243;29;20249;-75
2022/11/01 05:37:44;;;;;;;51.13;33.97;;;12.80;99.90;;;;;;4940536;29;20252;-66
2022/11/01 05:40:10;;;;;;;40.43;32.17;;;12.90;99.90;;;;;;4941183;29;20213;-66
2022/11/01 05:42:37;;;;;;;46.27;32.27;;;13.00;99.90;;;;;;4940602;29;20756;-67
2022/11/01 05:45:03;;;;;;;42.53;31.13;;;13.00;99.90;;;;;;4940948;29;20620;-68
2022/11/01 05:47:31;;;;;;;41.47;30.73;;;13.00;99.90;;;;;;4938755;29;20229;-69
2022/11/01 05:49:57;;;;;;;39.10;30.77;;;13.00;99.90;;;;;;4941009;29;20579;-69
2022/11/01 05:52:22;;;;;;;44.07;33.43;;;12.90;99.90;;;;;;4940613;29;20287;-69
2022/11/01 05:54:47;;;;;;;40.33;30.43;;;12.80;99.90;;;;;;4935734;28;21058;-67
2022/11/01 05:57:13;;;;;;;40.73;31.03;;;12.90;99.90;;;;;;4937081;29;20214;-66
2022/11/01 05:59:38;;;;;;;38.03;29.97;;;12.80;99.90;;;;;;4939092;29;20317;-67
2022/11/01 06:02:04;;;;;;;43.30;31.57;;;12.80;99.90;;;;;;4939447;29;20288;-66
2022/11/01 06:04:29;;;;;;;42.00;31.33;;;12.80;99.90;;;;;;4936339;29;20672;-66
2022/11/01 06:06:55;;;;;;;36.13;30.20;;;12.80;99.90;;;;;;4940088;29;20609;-68
2022/11/01 06:09:21;;;;;;;41.13;30.50;;;12.70;99.90;;;;;;4939353;29;20230;-68
2022/11/01 06:11:46;;;;;;;37.70;29.07;;;12.70;99.90;;;;;;4940193;29;20815;-68
2022/11/01 06:14:12;;;;;;;36.03;29.27;;;12.70;99.90;;;;;;4939172;29;20198;-67
2022/11/01 06:16:38;;;;;;;35.60;29.27;;;12.70;99.90;;;;;;4937525;29;20202;-66
2022/11/01 06:19:04;;;;;;;36.07;30.07;;;12.70;99.90;;;;;;4935232;29;20391;-67
2022/11/01 06:21:30;;;;;;;37.37;28.77;;;12.70;99.90;;;;;;4937764;29;20289;-67
2022/11/01 06:23:55;;;;;;;33.27;28.53;;;12.70;99.90;;;;;;4938689;29;20631;-67
2022/11/01 06:26:21;;;;;;;35.33;28.70;;;12.70;99.90;;;;;;4940299;29;20201;-67
2022/11/01 06:28:46;;;;;;;33.87;30.20;;;12.70;99.90;;;;;;4940274;29;20275;-66
2022/11/01 06:31:12;;;;;;;35.83;28.50;;;12.70;99.90;;;;;;4938003;28;20215;-66
2022/11/01 06:33:38;;;;;;;39.33;29.70;;;12.70;99.90;;;;;;4935434;29;20276;-65
2022/11/01 06:36:04;;;;;;;33.77;29.60;;;12.80;99.90;;;;;;4940083;29;20287;-66
2022/11/01 06:38:30;;;;;;;35.10;28.77;;;12.80;99.90;;;;;;4939262;28;21003;-64
2022/11/01 06:40:55;;;;;;;37.03;28.10;;;12.80;99.90;;;;;;4934779;29;20202;-65
2022/11/01 06:43:21;;;;;;;37.77;30.17;;;12.80;99.90;;;;;;4938117;29;20321;-65
2022/11/01 06:45:46;;;;;;;38.67;29.13;;;12.80;99.90;;;;;;4934939;29;20691;-65
2022/11/01 06:48:12;;;;;;;42.07;29.93;;;12.90;99.90;;;;;;4937744;29;20459;-65
2022/11/01 06:50:37;;;;;;;38.10;30.63;;;12.90;99.90;;;;;;4936917;29;20705;-64
2022/11/01 06:53:03;;;;;;;36.47;28.97;;;13.00;99.90;;;;;;4939364;28;20566;-66
2022/11/01 06:55:28;;;;;;;36.03;28.87;;;13.00;99.90;;;;;;4939531;29;20341;-66
2022/11/01 06:57:56;;;;;;;37.40;28.73;;;13.00;99.90;;;;;;4936442;29;20217;-64
2022/11/01 07:00:22;;;;;;;37.10;28.67;;;13.00;99.90;;;;;;4937743;29;20670;-65
2022/11/01 07:02:48;;;;;;;36.60;29.53;;;13.10;99.90;;;;;;4929985;29;21044;-65
2022/11/01 07:05:14;;;;;;;38.07;29.33;;;13.10;99.90;;;;;;4939327;29;20202;-65
2022/11/01 07:07:40;;;;;;;36.13;29.10;;;13.10;99.90;;;;;;4939004;29;20284;-65
2022/11/01 07:10:07;;;;;;;35.07;28.00;;;13.20;99.90;;;;;;4932607;29;20243;-65
2022/11/01 07:12:33;;;;;;;35.57;28.50;;;13.20;99.90;;;;;;4939538;29;20190;-65
2022/11/01 07:14:58;;;;;;;34.93;28.37;;;13.20;99.90;;;;;;4939086;29;20856;-65
2022/11/01 07:17:24;;;;;;;37.73;28.23;;;13.30;99.90;;;;;;4938967;29;20209;-65
2022/11/01 07:19:49;;;;;;;32.97;26.77;;;13.30;99.90;;;;;;4938623;29;20687;-66
2022/11/01 07:22:15;;;;;;;33.83;26.63;;;13.30;99.90;;;;;;4938795;29;20244;-65
2022/11/01 07:24:40;;;;;;;36.63;26.73;;;13.30;99.90;;;;;;4936653;29;20194;-65
2022/11/01 07:27:06;;;;;;;35.87;26.20;;;13.30;99.90;;;;;;4934408;29;20297;-66
2022/11/01 07:29:31;;;;;;;31.13;25.90;;;13.30;99.90;;;;;;4938753;29;20206;-65
2022/11/01 07:31:56;;;;;;;27.93;22.77;;;13.40;99.90;;;;;;4938632;29;20213;-64
2022/11/01 07:34:22;;;;;;;31.67;26.13;;;13.50;99.90;;;;;;4938836;29;20202;-65
2022/11/01 07:36:51;;;;;;;28.33;24.47;;;13.50;99.90;;;;;;4938210;29;20614;-64
2022/11/01 07:39:17;;;;;;;29.90;24.43;;;13.60;99.90;;;;;;4938525;29;20233;-65
2022/11/01 07:41:42;;;;;;;32.10;24.57;;;13.60;99.90;;;;;;4938356;29;20771;-64
2022/11/01 07:44:08;;;;;;;30.47;23.23;;;13.70;99.90;;;;;;4938612;29;20218;-65
2022/11/01 07:46:33;;;;;;;29.47;23.80;;;13.70;99.90;;;;;;4938197;29;20205;-65
2022/11/01 07:48:59;;;;;;;29.10;23.20;;;13.70;99.90;;;;;;4931332;28;20262;-65
2022/11/01 07:51:24;;;;;;;24.90;22.07;;;13.70;99.90;;;;;;4933111;28;20229;-65
2022/11/01 07:53:50;;;;;;;29.47;22.37;;;13.70;99.90;;;;;;4938351;28;20202;-67
2022/11/01 07:56:15;;;;;;;29.70;22.87;;;13.70;99.90;;;;;;4938315;28;20201;-66
2022/11/01 07:58:42;;;;;;;27.90;22.33;;;13.70;99.90;;;;;;4938120;29;20329;-67
2022/11/01 08:01:08;;;;;;;26.67;22.80;;;13.70;99.90;;;;;;4935432;29;20194;-67
2022/11/01 08:03:34;;;;;;;22.57;20.13;;;13.80;99.90;;;;;;4937713;29;20715;-66
2022/11/01 08:05:59;;;;;;;28.23;22.70;;;13.80;99.90;;;;;;4932697;29;20203;-67
2022/11/01 08:08:25;;;;;;;32.03;21.63;;;13.80;99.90;;;;;;4936820;29;20857;-67
2022/11/01 08:10:50;;;;;;;26.90;21.10;;;13.80;99.90;;;;;;4938139;29;20228;-67
2022/11/01 08:13:18;;;;;;;29.30;21.47;;;13.90;99.90;;;;;;4937596;29;20198;-67
2022/11/01 08:15:45;;;;;;;20.80;18.60;;;13.90;99.90;;;;;;4933112;29;20206;-67
2022/11/01 08:18:11;;;;;;;24.73;20.50;;;13.90;99.90;;;;;;4936019;29;20228;-67
2022/11/01 08:20:37;;;;;;;23.10;18.63;;;14.00;99.90;;;;;;4937713;29;20206;-68
2022/11/01 08:23:02;;;;;;;24.10;19.73;;;14.00;99.90;;;;;;4928568;29;20202;-68
2022/11/01 08:25:28;;;;;;;28.67;20.23;;;14.10;99.90;;;;;;4928294;29;20214;-67
2022/11/01 08:27:53;;;;;;;20.37;17.43;;;14.10;99.90;;;;;;4928244;29;20337;-67
2022/11/01 08:30:19;;;;;;;21.30;19.00;;;14.20;99.90;;;;;;4931175;29;20300;-67
2022/11/01 08:32:45;;;;;;;23.13;18.00;;;14.20;99.90;;;;;;4926018;29;20213;-69
2022/11/01 08:35:11;;;;;;;22.10;17.67;;;14.30;99.90;;;;;;4927982;29;20218;-68
2022/11/01 08:37:37;;;;;;;21.20;18.17;;;14.40;99.90;;;;;;4929662;29;20209;-68
2022/11/01 08:40:03;;;;;;;23.33;18.23;;;14.50;99.90;;;;;;4927989;29;20357;-67
2022/11/01 08:42:29;;;;;;;21.60;17.60;;;14.50;99.90;;;;;;4926418;29;20257;-70
2022/11/01 08:44:54;;;;;;;21.13;17.10;;;14.50;99.90;;;;;;4928504;29;20210;-69
2022/11/01 08:47:20;;;;;;;21.33;17.03;;;14.50;99.90;;;;;;4926344;29;20233;-69
2022/11/01 08:49:45;;;;;;;20.23;16.80;;;14.60;99.90;;;;;;4927361;29;20744;-68
2022/11/01 08:52:11;;;;;;;21.10;17.67;;;14.60;99.90;;;;;;4927892;29;20196;-68
2022/11/01 08:54:36;;;;;;;20.30;17.00;;;14.80;99.90;;;;;;4930728;28;20210;-67
2022/11/01 08:57:02;;;;;;;22.03;17.33;;;14.80;99.90;;;;;;4931422;29;20567;-68
2022/11/01 08:59:28;;;;;;;20.37;17.13;;;14.80;99.90;;;;;;4922203;29;20229;-68
2022/11/01 09:01:53;;;;;;;20.40;17.07;;;14.80;99.90;;;;;;4921628;28;20570;-69
2022/11/01 09:04:19;;;;;;;21.70;16.63;;;14.90;99.90;;;;;;4924094;29;20202;-69
2022/11/01 09:06:44;;;;;;;18.77;16.60;;;14.90;99.90;;;;;;4924729;29;20215;-69
2022/11/01 09:09:10;;;;;;;20.77;17.50;;;15.00;99.90;;;;;;4925611;29;20206;-68
2022/11/01 09:11:36;;;;;;;19.90;16.13;;;15.00;99.90;;;;;;4913313;29;20293;-70
2022/11/01 09:14:01;;;;;;;21.40;17.37;;;15.20;99.90;;;;;;4932411;29;20611;-73
2022/11/01 09:16:27;;;;;;;17.43;15.63;;;15.20;99.90;;;;;;4932021;29;20588;-71
2022/11/01 09:18:53;;;;;;;23.60;17.30;;;15.30;99.90;;;;;;4925914;29;20623;-71
2022/11/01 09:21:18;;;;;;;22.30;15.73;;;15.40;99.90;;;;;;4926981;29;20210;-71
2022/11/01 09:23:45;;;;;;;18.70;16.70;;;15.40;99.90;;;;;;4934747;29;20692;-71
2022/11/01 09:26:11;;;;;;;20.60;16.00;;;15.40;99.90;;;;;;4925517;29;20313;-72
2022/11/01 09:28:37;;;;;;;17.87;14.83;;;15.40;99.90;;;;;;4934015;29;20198;-69
2022/11/01 09:31:08;;;;;;;19.57;15.20;;;15.40;99.90;;;;;;4924772;29;20209;-71
2022/11/01 09:33:34;;;;;;;16.97;14.57;;;15.30;99.90;;;;;;4924849;29;20218;-69
2022/11/01 09:36:01;;;;;;;24.43;16.43;;;15.40;99.90;;;;;;4931627;29;20301;-70
2022/11/01 09:38:27;;;;;;;17.47;15.53;;;15.50;99.90;;;;;;4919841;29;20222;-68
2022/11/01 09:40:58;;;;;;;17.20;15.50;;;15.40;99.90;;;;;;4930681;29;20265;-68
2022/11/01 09:43:27;;;;;;;16.73;14.87;;;15.50;99.90;;;;;;4923239;29;20266;-69
2022/11/01 09:45:57;;;;;;;20.43;14.20;;;15.50;99.90;;;;;;4921362;29;20293;-70
2022/11/01 09:48:28;;;;;;;19.40;13.93;;;15.50;99.90;;;;;;4921986;29;20282;-70
2022/11/01 09:50:54;;;;;;;17.80;14.23;;;15.60;99.90;;;;;;4924731;29;20217;-70
2022/11/01 09:53:25;;;;;;;16.60;14.47;;;15.80;99.90;;;;;;4927600;28;20219;-72
2022/11/01 09:56:00;;;;;;;17.77;14.37;;;15.80;99.90;;;;;;4928208;29;20237;-69
2022/11/01 09:58:50;;;;;;;16.90;13.43;;;15.90;99.90;;;;;;4933406;29;20657;-69
2022/11/01 10:01:27;;;;;;;15.53;13.03;;;15.90;99.90;;;;;;4924375;29;20539;-70
2022/11/01 10:04:10;;;;;;;16.83;14.53;;;16.00;99.90;;;;;;4930412;29;20695;-65
2022/11/01 10:06:49;;;;;;;19.30;13.57;;;16.00;99.90;;;;;;4925686;29;20211;-69
2022/11/01 10:09:35;;;;;;;17.40;13.43;;;15.90;99.90;;;;;;4930998;29;20424;-70
2022/11/01 10:12:10;;;;;;;17.37;13.07;;;15.90;99.90;;;;;;4902407;29;20214;-68
2022/11/01 10:15:13;;;;;;;16.07;12.97;;;15.90;99.90;;;;;;4922381;29;20798;-70
2022/11/01 10:17:52;;;;;;;14.60;13.10;;;15.90;99.90;;;;;;4919081;29;20198;-70
2022/11/01 10:20:29;;;;;;;21.87;14.57;;;15.90;99.90;;;;;;4923589;29;20286;-69
2022/11/01 10:22:56;;;;;;;16.73;13.97;;;15.90;99.90;;;;;;4924031;29;20199;-69
2022/11/01 10:25:30;;;;;;;15.97;13.57;;;15.90;99.90;;;;;;4922736;29;20210;-70
2022/11/01 10:28:01;;;;;;;13.37;11.60;;;16.00;99.90;;;;;;4923755;29;20210;-69
2022/11/01 10:30:29;;;;;;;16.97;13.20;;;16.10;99.90;;;;;;4923911;29;20238;-70
2022/11/01 10:33:21;;;;;;;19.83;12.73;;;16.10;99.90;;;;;;4922614;29;20322;-71
2022/11/01 10:36:04;;;;;;;18.00;13.00;;;16.20;99.90;;;;;;4920970;29;20290;-70
2022/11/01 10:38:43;;;;;;;15.93;12.43;;;16.20;99.90;;;;;;4923153;29;20226;-70
2022/11/01 10:41:39;;;;;;;14.57;13.07;;;16.20;99.90;;;;;;4919448;29;20587;-71
2022/11/01 10:44:19;;;;;;;15.13;11.97;;;16.20;99.90;;;;;;4925866;29;20222;-70
2022/11/01 10:46:47;;;;;;;21.53;13.63;;;16.20;99.90;;;;;;4931047;29;20206;-78
2022/11/01 10:49:23;;;;;;;18.43;13.77;;;16.20;99.90;;;;;;4927349;29;20230;-70
2022/11/01 10:51:53;;;;;;;16.60;12.93;;;16.30;99.90;;;;;;4922655;29;20334;-69
2022/11/01 10:54:24;;;;;;;15.77;12.47;;;16.30;99.90;;;;;;4929154;28;20294;-70
2022/11/01 10:56:53;;;;;;;18.20;13.73;;;16.30;99.90;;;;;;4921446;29;20254;-70
2022/11/01 10:59:24;;;;;;;18.07;12.17;;;16.30;99.90;;;;;;4914588;29;20225;-69
2022/11/01 11:01:51;;;;;;;17.43;12.20;;;16.40;99.90;;;;;;4922368;29;20708;-70
2022/11/01 11:04:20;;;;;;;17.07;13.20;;;16.40;99.90;;;;;;4929206;29;20356;-70
2022/11/01 11:06:46;;;;;;;14.73;12.50;;;16.50;99.90;;;;;;4924494;29;20239;-70
2022/11/01 11:09:28;;;;;;;18.23;12.60;;;16.60;99.90;;;;;;4929519;29;20237;-69
2022/11/01 11:12:02;;;;;;;12.27;10.77;;;16.60;99.90;;;;;;4925115;29;20272;-70
2022/11/01 11:14:30;;;;;;;12.80;11.50;;;16.60;99.90;;;;;;4929238;29;20205;-73
2022/11/01 11:16:57;;;;;;;13.90;11.50;;;16.70;99.90;;;;;;4929320;29;20226;-72
2022/11/01 11:19:28;;;;;;;13.37;11.93;;;16.80;99.90;;;;;;4928508;29;20261;-70
2022/11/01 11:21:55;;;;;;;12.20;10.33;;;16.90;99.90;;;;;;4915291;29;20214;-69
2022/11/01 11:24:29;;;;;;;14.90;10.50;;;17.10;99.90;;;;;;4921448;29;20203;-71
2022/11/01 11:26:56;;;;;;;12.80;9.70;;;17.40;99.90;;;;;;4922121;29;20304;-70
2022/11/01 11:29:47;;;;;;;15.67;10.23;;;17.70;99.90;;;;;;4928086;29;20206;-72
2022/11/01 11:32:20;;;;;;;11.77;8.90;;;17.90;99.90;;;;;;4927863;29;20211;-71
2022/11/01 11:34:56;;;;;;;10.17;8.03;;;17.90;99.90;;;;;;4926568;29;20296;-72
2022/11/01 11:37:25;;;;;;;11.17;8.13;;;17.80;99.90;;;;;;4921370;29;20214;-68
2022/11/01 11:40:23;;;;;;;16.37;9.23;;;17.70;99.90;;;;;;4919651;29;20304;-69
2022/11/01 11:42:50;;;;;;;11.47;7.70;;;17.50;99.90;;;;;;4923097;29;20211;-69
2022/11/01 11:45:26;;;;;;;9.47;6.90;;;17.40;99.90;;;;;;4919233;29;20207;-68
2022/11/01 11:47:53;;;;;;;11.47;8.07;;;17.30;99.90;;;;;;4926336;29;20272;-69
2022/11/01 11:50:18;;;;;;;9.63;7.63;;;17.30;99.90;;;;;;4925660;29;20255;-70
2022/11/01 11:52:49;;;;;;;11.27;7.63;;;17.30;99.90;;;;;;4924630;29;20572;-65
2022/11/01 11:55:42;;;;;;;12.73;8.00;;;17.30;99.90;;;;;;4920253;29;20806;-63
2022/11/01 11:58:20;;;;;;;12.47;8.00;;;17.20;99.90;;;;;;4917056;29;20231;-66
2022/11/01 12:00:48;;;;;;;8.27;7.40;;;17.20;99.90;;;;;;4925872;29;20218;-70
2022/11/01 12:03:16;;;;;;;9.77;8.00;;;17.10;99.90;;;;;;4921555;29;20544;-68
2022/11/01 12:05:54;;;;;;;9.13;6.73;;;17.10;99.90;;;;;;4919395;29;20222;-69
2022/11/01 12:08:50;;;;;;;13.10;8.13;;;17.00;99.90;;;;;;4923858;29;20266;-66
2022/11/01 12:11:16;;;;;;;16.50;8.60;;;17.00;99.90;;;;;;4925554;29;20377;-68
2022/11/01 12:14:03;;;;;;;8.87;6.97;;;17.00;99.90;;;;;;4928181;29;20860;-64
2022/11/01 12:16:28;;;;;;;9.07;7.30;;;16.90;99.90;;;;;;4926102;29;20202;-66
2022/11/01 12:19:01;;;;;;;12.17;8.20;;;16.90;99.90;;;;;;4927653;29;20300;-66
2022/11/01 12:21:36;;;;;;;12.73;8.07;;;16.80;99.90;;;;;;4917089;29;20210;-66
2022/11/01 12:24:22;;;;;;;11.40;8.23;;;16.70;99.90;;;;;;4918663;29;20206;-65
2022/11/01 12:26:50;;;;;;;8.87;7.50;;;16.70;99.90;;;;;;4915864;29;20297;-67
2022/11/01 12:29:48;;;;;;;9.70;7.43;;;16.70;99.90;;;;;;4917301;29;20214;-67
2022/11/01 12:32:20;;;;;;;11.43;7.40;;;16.80;99.90;;;;;;4916933;29;20286;-68
2022/11/01 12:34:47;;;;;;;12.33;7.30;;;16.90;99.90;;;;;;4920812;29;20236;-67
2022/11/01 12:37:19;;;;;;;7.93;7.23;;;17.10;99.90;;;;;;4919183;29;20213;-67
2022/11/01 12:40:01;;;;;;;12.50;7.27;;;17.20;99.90;;;;;;4926089;29;20307;-67
2022/11/01 12:42:38;;;;;;;12.80;7.03;;;17.20;99.90;;;;;;4926587;29;20218;-66
2022/11/01 12:45:14;;;;;;;8.87;7.53;;;17.20;99.90;;;;;;4927194;29;20229;-65